createdAt,value
2023-08-14T00:02:53.271Z,100618.91
2023-08-14T00:05:56.222Z,100616.31
2023-08-14T00:08:58.500Z,100623.41
2023-08-14T00:12:02.580Z,100624.38
2023-08-14T00:15:05.114Z,100625.31
2023-08-14T00:18:08.029Z,100621.81
2023-08-14T00:21:10.519Z,100626.25
2023-08-14T00:24:13.512Z,100616.47
2023-08-14T00:27:15.909Z,100623.53
2023-08-14T00:30:19.012Z,100621.91
2023-08-14T00:33:21.436Z,100616.69
2023-08-14T00:36:24.427Z,100616.69
2023-08-14T00:39:26.829Z,100623.84
2023-08-14T00:42:29.772Z,100617.66
2023-08-14T00:45:45.418Z,100620.31
2023-08-14T00:48:49.726Z,100628.28
2023-08-14T00:51:52.213Z,100622.97
2023-08-14T00:54:55.245Z,100632.75
2023-08-14T00:57:57.773Z,100624.81
2023-08-14T01:01:01.426Z,100630.13
2023-08-14T01:04:04.275Z,100637.25
2023-08-14T01:07:07.185Z,100632.81
2023-08-14T01:10:10.209Z,100637.28
2023-08-14T01:13:39.372Z,100637.28
2023-08-14T01:16:45.132Z,100637.28
2023-08-14T01:19:51.187Z,100637.28
2023-08-14T01:23:12.474Z,100639.97
2023-08-14T01:26:15.985Z,100635.56
2023-08-14T01:29:18.370Z,100636.44
2023-08-14T01:32:21.205Z,100644.41
2023-08-14T01:35:25.143Z,100636.44
2023-08-14T01:38:38.925Z,100630.28
2023-08-14T01:41:46.124Z,100624.09
2023-08-14T01:44:49.958Z,100625.84
2023-08-14T01:47:54.494Z,100621.47
2023-08-14T01:50:58.676Z,100630.31
2023-08-14T01:54:01.106Z,100627.66
2023-08-14T01:57:04.152Z,100631.22
2023-08-14T02:00:09.174Z,100636.53
2023-08-14T02:03:15.195Z,100650.69
2023-08-14T02:06:17.847Z,100650.69
2023-08-14T02:09:20.438Z,100647.16
2023-08-14T02:12:23.054Z,100647.19
2023-08-14T02:15:25.798Z,100647.19
2023-08-14T02:18:28.523Z,100641.94
2023-08-14T02:21:31.104Z,100646.34
2023-08-14T02:24:33.763Z,100645.47
2023-08-14T02:27:36.516Z,100645.47
2023-08-14T02:30:42.447Z,100643.75
2023-08-14T02:33:45.215Z,100650.84
2023-08-14T02:36:47.988Z,100650.00
2023-08-14T02:39:51.218Z,100646.50
2023-08-14T02:42:53.837Z,100650.00
2023-08-14T02:45:56.396Z,100647.34
2023-08-14T02:48:59.226Z,100647.31
2023-08-14T02:52:02.130Z,100643.84
2023-08-14T02:55:05.229Z,100654.47
2023-08-14T02:58:08.172Z,100649.16
2023-08-14T03:01:10.902Z,100654.50
2023-08-14T03:04:14.337Z,100655.38
2023-08-14T03:07:17.058Z,100658.94
2023-08-14T03:10:19.634Z,100660.72
2023-08-14T03:13:22.421Z,100659.00
2023-08-14T03:16:25.122Z,100665.16
2023-08-14T03:19:27.844Z,100673.12
2023-08-14T03:22:30.609Z,100658.94
2023-08-14T03:25:33.318Z,100662.53
2023-08-14T03:28:36.061Z,100661.66
2023-08-14T03:31:38.791Z,100666.97
2023-08-14T03:34:41.506Z,100676.66
2023-08-14T03:37:44.802Z,100673.19
2023-08-14T03:40:48.197Z,100681.97
2023-08-14T03:43:50.904Z,100678.47
2023-08-14T03:46:53.552Z,100682.00
2023-08-14T03:49:56.193Z,100678.47
2023-08-14T03:52:58.829Z,100667.84
2023-08-14T03:56:01.449Z,100683.75
2023-08-14T03:59:06.114Z,100677.59
2023-08-14T04:02:09.219Z,100689.06
2023-08-14T04:05:12.171Z,100695.28
2023-08-14T04:08:15.633Z,100703.22
2023-08-14T04:11:19.376Z,100702.34
2023-08-14T04:14:21.689Z,100701.47
2023-08-14T04:17:25.002Z,100705.88
2023-08-14T04:20:27.321Z,100703.25
2023-08-14T04:23:31.630Z,100705.91
2023-08-14T04:26:34.034Z,100708.56
2023-08-14T04:29:37.264Z,100712.97
2023-08-14T04:32:39.671Z,100712.94
2023-08-14T04:35:42.606Z,100712.06
2023-08-14T04:38:45.220Z,100716.47
2023-08-14T04:41:48.186Z,100715.59
2023-08-14T04:44:51.658Z,100723.56
2023-08-14T04:47:57.131Z,100712.94
2023-08-14T04:51:00.320Z,100712.94
2023-08-14T04:54:03.653Z,100708.50
2023-08-14T04:57:06.059Z,100710.28
2023-08-14T05:00:09.643Z,100712.03
2023-08-14T05:03:12.370Z,100710.22
2023-08-14T05:06:15.344Z,100701.34
2023-08-14T05:09:26.355Z,100708.47
2023-08-14T05:12:31.182Z,100709.31
2023-08-14T05:15:33.605Z,100723.50
2023-08-14T05:18:36.605Z,100721.69
2023-08-14T05:21:39.011Z,100719.88
2023-08-14T05:24:42.036Z,100728.75
2023-08-14T05:27:44.363Z,100728.72
2023-08-14T05:30:47.279Z,100730.44
2023-08-14T05:33:50.162Z,100728.69
2023-08-14T05:36:53.053Z,100724.25
2023-08-14T05:39:55.388Z,100729.56
2023-08-14T05:43:05.012Z,100722.38
2023-08-14T05:46:07.544Z,100727.69
2023-08-14T05:49:10.580Z,100728.53
2023-08-14T05:52:13.186Z,100738.19
2023-08-14T05:55:16.667Z,100737.31
2023-08-14T05:58:19.024Z,100738.13
2023-08-14T06:01:21.973Z,100741.66
2023-08-14T06:04:24.731Z,100729.97
2023-08-14T06:07:27.434Z,100733.56
2023-08-14T06:10:30.222Z,100742.31
2023-08-14T06:13:33.058Z,100744.06
2023-08-14T06:16:35.835Z,100748.44
2023-08-14T06:19:38.548Z,100753.72
2023-08-14T06:22:42.171Z,100754.44
2023-08-14T06:25:44.826Z,100748.22
2023-08-14T06:28:47.715Z,100748.00
2023-08-14T06:31:50.350Z,100754.16
2023-08-14T06:34:52.929Z,100757.59
2023-08-14T06:37:56.543Z,100751.22
2023-08-14T06:40:59.368Z,100751.00
2023-08-14T06:44:02.080Z,100759.53
2023-08-14T06:47:04.852Z,100756.72
2023-08-14T06:50:07.535Z,100752.78
2023-08-14T06:53:10.371Z,100755.91
2023-08-14T06:56:12.980Z,100761.66
2023-08-14T06:59:15.850Z,100759.63
2023-08-14T07:02:18.903Z,100761.97
2023-08-14T07:05:21.863Z,100758.78
2023-08-14T07:08:25.398Z,100764.50
2023-08-14T07:11:28.160Z,100766.63
2023-08-14T07:14:32.506Z,100767.19
2023-08-14T07:17:35.256Z,100763.75
2023-08-14T07:20:38.027Z,100765.69
2023-08-14T07:23:40.715Z,100756.41
2023-08-14T07:26:43.767Z,100751.22
2023-08-14T07:29:46.458Z,100755.19
2023-08-14T07:32:49.238Z,100760.44
2023-08-14T07:35:51.934Z,100751.63
2023-08-14T07:38:54.629Z,100749.97
2023-08-14T07:41:57.439Z,100754.34
2023-08-14T07:45:00.011Z,100757.16
2023-08-14T07:48:02.686Z,100754.88
2023-08-14T07:51:06.437Z,100751.03
2023-08-14T07:54:09.105Z,100750.53
2023-08-14T07:57:11.677Z,100750.53
2023-08-14T08:00:17.363Z,100747.97
2023-08-14T08:03:20.738Z,100741.87
2023-08-14T08:06:23.233Z,100740.31
2023-08-14T08:09:26.164Z,100745.94
2023-08-14T08:12:28.893Z,100740.75
2023-08-14T08:15:32.169Z,100739.72
2023-08-14T08:18:34.614Z,100737.59
2023-08-14T08:21:38.096Z,100742.28
2023-08-14T08:24:40.451Z,100737.31
2023-08-14T08:27:43.344Z,100737.75
2023-08-14T08:30:46.007Z,100739.63
2023-08-14T08:33:49.044Z,100739.97
2023-08-14T08:36:51.441Z,100737.25
2023-08-14T08:39:54.389Z,100734.91
2023-08-14T08:42:57.276Z,100738.00
2023-08-14T08:46:04.012Z,100733.09
2023-08-14T08:49:06.968Z,100733.19
2023-08-14T08:52:11.337Z,100752.44
2023-08-14T08:55:16.308Z,100744.59
2023-08-14T08:58:20.380Z,100747.28
2023-08-14T09:01:23.149Z,100743.56
2023-08-14T09:04:26.771Z,100740.72
2023-08-14T09:07:29.556Z,100734.53
2023-08-14T09:10:32.483Z,100729.13
2023-08-14T09:13:34.768Z,100728.00
2023-08-14T09:16:37.669Z,100725.75
2023-08-14T09:19:41.083Z,100714.63
2023-08-14T09:22:43.998Z,100710.22
2023-08-14T09:25:46.955Z,100712.28
2023-08-14T09:28:50.041Z,100704.81
2023-08-14T09:31:53.047Z,100706.31
2023-08-14T09:35:00.165Z,100707.13
2023-08-14T09:38:03.181Z,100699.50
2023-08-14T09:41:06.157Z,100705.06
2023-08-14T09:44:08.730Z,100701.63
2023-08-14T09:47:14.846Z,100698.72
2023-08-14T09:50:18.996Z,100706.97
2023-08-14T09:53:21.916Z,100703.97
2023-08-14T09:56:25.128Z,100704.03
2023-08-14T09:59:28.132Z,100691.50
2023-08-14T10:02:32.831Z,100700.41
2023-08-14T10:05:39.026Z,100695.44
2023-08-14T10:08:43.614Z,100700.19
2023-08-14T10:11:47.231Z,100700.91
2023-08-14T10:14:56.324Z,100692.72
2023-08-14T10:18:00.791Z,100691.69
2023-08-14T10:21:05.653Z,100693.50
2023-08-14T10:24:09.069Z,100689.16
2023-08-14T10:27:12.222Z,100685.75
2023-08-14T10:30:15.653Z,100688.00
2023-08-14T10:33:20.373Z,100683.84
2023-08-14T10:36:27.331Z,100683.50
2023-08-14T10:39:34.982Z,100683.28
2023-08-14T10:42:38.004Z,100675.16
2023-08-14T10:45:40.352Z,100668.03
2023-08-14T10:48:44.514Z,100662.47
2023-08-14T10:51:47.116Z,100658.72
2023-08-14T10:54:54.372Z,100655.44
2023-08-14T10:57:56.807Z,100647.81
2023-08-14T11:01:00.026Z,100651.28
2023-08-14T11:04:06.468Z,100648.94
2023-08-14T11:07:13.093Z,100639.84
2023-08-14T11:10:15.891Z,100645.38
2023-08-14T11:13:18.863Z,100636.03
2023-08-14T11:16:22.015Z,100635.19
2023-08-14T11:19:25.348Z,100633.16
2023-08-14T11:22:27.608Z,100631.31
2023-08-14T11:25:31.251Z,100625.03
2023-08-14T11:28:33.899Z,100628.75
2023-08-14T11:31:44.678Z,100633.22
2023-08-14T11:34:51.199Z,100624.50
2023-08-14T11:37:54.203Z,100610.47
2023-08-14T11:40:56.548Z,100622.69
2023-08-14T11:43:59.577Z,100614.97
2023-08-14T11:47:04.354Z,100621.00
2023-08-14T11:50:08.454Z,100610.06
2023-08-14T11:53:12.900Z,100608.84
2023-08-14T11:56:16.042Z,100605.91
2023-08-14T11:59:19.330Z,100614.06
2023-08-14T12:02:22.577Z,100608.75
2023-08-14T12:05:26.377Z,100599.56
2023-08-14T12:08:29.876Z,100596.81
2023-08-14T12:11:32.544Z,100605.19
2023-08-14T12:14:49.083Z,100594.56
2023-08-14T12:17:52.642Z,100594.97
2023-08-14T12:20:55.782Z,100602.91
2023-08-14T12:23:58.339Z,100595.19
2023-08-14T12:27:01.003Z,100601.22
2023-08-14T12:30:04.075Z,100601.06
2023-08-14T12:33:06.908Z,100585.00
2023-08-14T12:36:11.391Z,100581.81
2023-08-14T12:39:14.031Z,100577.84
2023-08-14T12:42:16.727Z,100583.09
2023-08-14T12:45:19.270Z,100588.03
2023-08-14T12:48:21.961Z,100573.78
2023-08-14T12:51:24.646Z,100584.78
2023-08-14T12:54:27.649Z,100582.44
2023-08-14T12:57:30.265Z,100576.03
2023-08-14T13:00:33.319Z,100574.00
2023-08-14T13:03:38.020Z,100573.09
2023-08-14T13:06:41.404Z,100566.31
2023-08-14T13:09:44.125Z,100562.75
2023-08-14T13:12:46.874Z,100561.88
2023-08-14T13:15:49.500Z,100560.25
2023-08-14T13:18:52.109Z,100564.44
2023-08-14T13:21:54.762Z,100563.06
2023-08-14T13:24:57.416Z,100561.56
2023-08-14T13:28:00.131Z,100556.06
2023-08-14T13:31:06.790Z,100551.06
2023-08-14T13:34:09.456Z,100547.62
2023-08-14T13:37:12.019Z,100543.66
2023-08-14T13:40:14.614Z,100543.50
2023-08-14T13:43:17.513Z,100540.66
2023-08-14T13:46:20.173Z,100542.16
2023-08-14T13:49:22.922Z,100541.84
2023-08-14T13:52:26.469Z,100542.66
2023-08-14T13:55:30.544Z,100535.22
2023-08-14T13:58:33.264Z,100523.97
2023-08-14T14:01:36.085Z,100533.00
2023-08-14T14:04:40.297Z,100533.81
2023-08-14T14:07:47.611Z,100526.22
2023-08-14T14:10:54.770Z,100521.13
2023-08-14T14:13:57.227Z,100521.66
2023-08-14T14:17:04.222Z,100518.94
2023-08-14T14:20:10.826Z,100515.16
2023-08-14T14:23:13.735Z,100511.87
2023-08-14T14:26:16.085Z,100514.38
2023-08-14T14:29:19.543Z,100506.13
2023-08-14T14:32:22.111Z,100510.22
2023-08-14T14:35:25.723Z,100508.88
2023-08-14T14:38:28.207Z,100502.38
2023-08-14T14:41:31.208Z,100512.88
2023-08-14T14:44:33.678Z,100507.97
2023-08-14T14:47:36.699Z,100505.00
2023-08-14T14:50:39.094Z,100510.53
2023-08-14T14:53:42.042Z,100510.63
2023-08-14T14:56:44.418Z,100511.19
2023-08-14T14:59:50.812Z,100511.44
2023-08-14T15:02:53.803Z,100503.75
2023-08-14T15:05:56.806Z,100507.06
2023-08-14T15:08:59.145Z,100504.53
2023-08-14T15:12:02.173Z,100503.31
2023-08-14T15:15:04.772Z,100495.69
2023-08-14T15:18:08.442Z,100499.69
2023-08-14T15:21:10.815Z,100499.59
2023-08-14T15:24:13.849Z,100498.53
2023-08-14T15:27:16.190Z,100491.81
2023-08-14T15:30:19.210Z,100493.06
2023-08-14T15:33:22.971Z,100497.06
2023-08-14T15:36:26.011Z,100485.47
2023-08-14T15:39:31.663Z,100489.19
2023-08-14T15:42:35.101Z,100475.72
2023-08-14T15:45:37.570Z,100479.06
2023-08-14T15:48:41.326Z,100478.34
2023-08-14T15:51:43.674Z,100478.91
2023-08-14T15:54:53.561Z,100475.22
2023-08-14T15:57:56.387Z,100476.03
2023-08-14T16:00:59.381Z,100477.31
2023-08-14T16:04:02.050Z,100477.13
2023-08-14T16:07:04.733Z,100473.00
2023-08-14T16:10:07.864Z,100482.03
2023-08-14T16:13:10.686Z,100471.25
2023-08-14T16:16:13.359Z,100470.63
2023-08-14T16:19:33.320Z,100468.78
2023-08-14T16:22:36.413Z,100468.78
2023-08-14T16:25:38.886Z,100478.28
2023-08-14T16:28:41.783Z,100473.56
2023-08-14T16:31:44.150Z,100479.31
2023-08-14T16:34:48.811Z,100470.47
2023-08-14T16:37:51.270Z,100473.12
2023-08-14T16:40:54.270Z,100469.75
2023-08-14T16:43:56.758Z,100462.75
2023-08-14T16:46:59.678Z,100463.00
2023-08-14T16:50:02.069Z,100465.25
2023-08-14T16:53:05.070Z,100466.25
2023-08-14T16:56:07.403Z,100463.94
2023-08-14T16:59:10.298Z,100467.69
2023-08-14T17:02:13.509Z,100466.97
2023-08-14T17:05:16.577Z,100468.28
2023-08-14T17:08:19.049Z,100470.13
2023-08-14T17:11:22.974Z,100472.94
2023-08-14T17:14:27.221Z,100466.81
2023-08-14T17:17:32.354Z,100479.31
2023-08-14T17:20:34.820Z,100477.09
2023-08-14T17:23:37.645Z,100481.72
2023-08-14T17:26:40.427Z,100481.13
2023-08-14T17:29:43.345Z,100481.41
2023-08-14T17:32:45.646Z,100483.19
2023-08-14T17:35:48.961Z,100473.41
2023-08-14T17:38:51.396Z,100473.12
2023-08-14T17:41:57.416Z,100477.22
2023-08-14T17:45:00.155Z,100473.72
2023-08-14T17:48:03.183Z,100470.06
2023-08-14T17:51:05.579Z,100476.69
2023-08-14T17:54:08.572Z,100479.19
2023-08-14T17:57:10.987Z,100484.34
2023-08-14T18:00:13.949Z,100483.59
2023-08-14T18:03:16.295Z,100491.06
2023-08-14T18:06:19.314Z,100503.38
2023-08-14T18:09:23.523Z,100504.09
2023-08-14T18:12:26.601Z,100509.97
2023-08-14T18:15:28.893Z,100506.81
2023-08-14T18:18:31.814Z,100509.81
2023-08-14T18:21:36.681Z,100518.25
2023-08-14T18:24:40.012Z,100519.31
2023-08-14T18:27:42.552Z,100520.47
2023-08-14T18:30:45.448Z,100527.78
2023-08-14T18:33:47.819Z,100530.94
2023-08-14T18:36:50.702Z,100533.88
2023-08-14T18:39:53.029Z,100537.72
2023-08-14T18:42:55.963Z,100547.75
2023-08-14T18:45:58.897Z,100549.69
2023-08-14T18:49:01.773Z,100544.53
2023-08-14T18:52:04.228Z,100544.72
2023-08-14T18:55:07.465Z,100545.87
2023-08-14T18:58:12.249Z,100551.53
2023-08-14T19:01:15.201Z,100549.09
2023-08-14T19:04:25.698Z,100559.16
2023-08-14T19:07:36.143Z,100566.44
2023-08-14T19:10:38.521Z,100559.34
2023-08-14T19:13:42.905Z,100563.19
2023-08-14T19:16:45.264Z,100571.38
2023-08-14T19:19:48.239Z,100569.63
2023-08-14T19:22:51.265Z,100564.19
2023-08-14T19:25:54.226Z,100569.63
2023-08-14T19:28:56.595Z,100575.94
2023-08-14T19:31:59.834Z,100573.38
2023-08-14T19:35:02.222Z,100576.13
2023-08-14T19:38:06.535Z,100569.94
2023-08-14T19:41:09.308Z,100578.19
2023-08-14T19:44:12.304Z,100578.38
2023-08-14T19:47:16.173Z,100582.13
2023-08-14T19:50:19.225Z,100581.31
2023-08-14T19:53:21.773Z,100579.63
2023-08-14T19:56:24.785Z,100581.47
2023-08-14T19:59:27.193Z,100577.97
2023-08-14T20:02:30.141Z,100586.72
2023-08-14T20:05:32.971Z,100593.28
2023-08-14T20:08:35.554Z,100586.16
2023-08-14T20:11:38.173Z,100588.09
2023-08-14T20:14:41.380Z,100594.66
2023-08-14T20:17:44.149Z,100594.72
2023-08-14T20:20:47.148Z,100586.03
2023-08-14T20:23:49.882Z,100590.56
2023-08-14T20:26:52.558Z,100586.28
2023-08-14T20:29:55.120Z,100586.41
2023-08-14T20:32:57.876Z,100591.72
2023-08-14T20:36:00.879Z,100587.97
2023-08-14T20:39:03.800Z,100582.72
2023-08-14T20:42:06.633Z,100593.66
2023-08-14T20:45:09.782Z,100588.38
2023-08-14T20:48:13.377Z,100597.44
2023-08-14T20:51:17.660Z,100595.41
2023-08-14T20:54:20.534Z,100594.88
2023-08-14T20:57:23.624Z,100590.50
2023-08-14T21:00:29.032Z,100590.88
2023-08-14T21:03:33.294Z,100591.81
2023-08-14T21:06:35.983Z,100589.25
2023-08-14T21:09:38.690Z,100586.66
2023-08-14T21:12:41.514Z,100594.72
2023-08-14T21:15:44.216Z,100589.44
2023-08-14T21:18:46.820Z,100581.94
2023-08-14T21:21:49.428Z,100583.19
2023-08-14T21:24:52.105Z,100582.13
2023-08-14T21:27:54.687Z,100582.06
2023-08-14T21:30:58.031Z,100579.72
2023-08-14T21:34:00.734Z,100577.28
2023-08-14T21:37:03.628Z,100585.56
2023-08-14T21:40:06.795Z,100575.75
2023-08-14T21:43:09.592Z,100573.94
2023-08-14T21:46:12.440Z,100585.56
2023-08-14T21:49:16.367Z,100585.72
2023-08-14T21:52:19.010Z,100593.06
2023-08-14T21:55:21.686Z,100585.94
2023-08-14T21:58:24.584Z,100588.88
2023-08-14T22:01:27.380Z,100589.75
2023-08-14T22:04:30.411Z,100588.81
2023-08-14T22:07:33.438Z,100588.88
2023-08-14T22:10:36.400Z,100580.94
2023-08-14T22:13:38.721Z,100581.69
2023-08-14T22:16:41.639Z,100578.84
2023-08-14T22:19:44.149Z,100578.06
2023-08-14T22:22:46.973Z,100588.78
2023-08-14T22:25:49.319Z,100581.34
2023-08-14T22:28:52.207Z,100584.19
2023-08-14T22:31:54.577Z,100582.59
2023-08-14T22:34:57.474Z,100579.13
2023-08-14T22:37:59.800Z,100580.13
2023-08-14T22:41:02.670Z,100576.53
2023-08-14T22:44:05.084Z,100572.22
2023-08-14T22:47:08.100Z,100576.66
2023-08-14T22:50:10.708Z,100575.91
2023-08-14T22:53:13.667Z,100571.53
2023-08-14T22:56:16.025Z,100576.16
2023-08-14T22:59:18.997Z,100569.13
2023-08-14T23:02:21.393Z,100575.44
2023-08-14T23:05:25.107Z,100570.91
2023-08-14T23:08:27.450Z,100577.25
2023-08-14T23:11:34.774Z,100570.41
2023-08-14T23:14:37.094Z,100563.38
2023-08-14T23:17:39.999Z,100566.94
2023-08-14T23:20:42.394Z,100566.09
2023-08-14T23:23:45.261Z,100572.28
2023-08-14T23:26:47.537Z,100571.59
2023-08-14T23:29:50.591Z,100577.09
2023-08-14T23:32:52.888Z,100574.56
2023-08-14T23:35:55.793Z,100563.13
2023-08-14T23:38:58.048Z,100563.19
2023-08-14T23:42:01.255Z,100556.91
2023-08-14T23:45:03.678Z,100570.28
2023-08-14T23:48:08.059Z,100569.66
2023-08-14T23:51:10.914Z,100563.38
2023-08-14T23:54:13.801Z,100570.41
2023-08-14T23:57:16.285Z,100568.63
